createdAt,value
2023-05-04T00:01:32.256Z,95728.66
2023-05-04T00:04:05.515Z,95725.28
2023-05-04T00:06:52.278Z,95732.09
2023-05-04T00:09:25.379Z,95727.81
2023-05-04T00:12:13.265Z,95725.25
2023-05-04T00:14:46.354Z,95724.41
2023-05-04T00:17:33.329Z,95729.53
2023-05-04T00:20:06.510Z,95725.28
2023-05-04T00:22:53.278Z,95730.38
2023-05-04T00:25:26.496Z,95728.66
2023-05-04T00:28:13.283Z,95723.56
2023-05-04T00:30:46.698Z,95723.56
2023-05-04T00:33:33.275Z,95725.25
2023-05-04T00:36:13.275Z,95722.72
2023-05-04T00:39:01.290Z,95720.16
2023-05-04T00:41:41.302Z,95726.13
2023-05-04T00:44:35.277Z,95721.88
2023-05-04T00:47:29.313Z,95722.72
2023-05-04T00:50:24.311Z,95723.56
2023-05-04T00:53:20.266Z,95713.34
2023-05-04T00:55:53.372Z,95714.22
2023-05-04T00:58:41.292Z,95721.88
2023-05-04T01:01:21.362Z,95716.78
2023-05-04T01:04:15.371Z,95717.59
2023-05-04T01:07:31.293Z,95710.81
2023-05-04T01:10:14.470Z,95715.88
2023-05-04T01:13:07.395Z,95718.44
2023-05-04T01:15:41.369Z,95715.03
2023-05-04T01:18:30.311Z,95713.34
2023-05-04T01:21:10.291Z,95721.81
2023-05-04T01:23:57.307Z,95711.63
2023-05-04T01:26:41.295Z,95706.53
2023-05-04T01:29:45.336Z,95702.28
2023-05-04T01:32:35.389Z,95691.25
2023-05-04T01:35:09.391Z,95697.19
2023-05-04T01:37:56.306Z,95689.56
2023-05-04T01:40:29.418Z,95692.94
2023-05-04T01:43:16.310Z,95690.41
2023-05-04T01:45:56.342Z,95691.22
2023-05-04T01:48:43.322Z,95684.44
2023-05-04T01:51:23.328Z,95681.88
2023-05-04T01:54:10.299Z,95682.75
2023-05-04T01:56:43.444Z,95681.03
2023-05-04T01:59:30.338Z,95680.19
2023-05-04T02:02:03.824Z,95688.69
2023-05-04T02:04:50.330Z,95681.91
2023-05-04T02:07:23.415Z,95685.31
2023-05-04T02:10:10.370Z,95679.34
2023-05-04T02:12:50.362Z,95676.78
2023-05-04T02:15:44.348Z,95677.66
2023-05-04T02:18:31.314Z,95675.94
2023-05-04T02:21:04.603Z,95670.00
2023-05-04T02:23:51.328Z,95673.41
2023-05-04T02:26:24.500Z,95666.59
2023-05-04T02:29:12.324Z,95669.13
2023-05-04T02:31:45.515Z,95659.78
2023-05-04T02:34:25.361Z,95664.03
2023-05-04T02:37:07.789Z,95667.44
2023-05-04T02:39:47.318Z,95664.88
2023-05-04T02:42:27.416Z,95669.16
2023-05-04T02:45:07.342Z,95675.09
2023-05-04T02:47:47.478Z,95675.94
2023-05-04T02:50:27.337Z,95681.88
2023-05-04T02:53:14.347Z,95678.47
2023-05-04T02:55:47.441Z,95676.78
2023-05-04T02:58:34.330Z,95671.72
2023-05-04T03:01:07.511Z,95681.91
2023-05-04T03:03:54.374Z,95673.38
2023-05-04T03:06:34.447Z,95679.34
2023-05-04T03:09:14.369Z,95673.38
2023-05-04T03:11:54.506Z,95674.25
2023-05-04T03:14:34.376Z,95674.25
2023-05-04T03:17:21.343Z,95679.34
2023-05-04T03:20:01.326Z,95679.31
2023-05-04T03:22:48.341Z,95678.47
2023-05-04T03:25:21.768Z,95680.16
2023-05-04T03:28:08.354Z,95672.53
2023-05-04T03:30:41.900Z,95677.63
2023-05-04T03:33:28.368Z,95681.00
2023-05-04T03:36:01.715Z,95676.75
2023-05-04T03:38:48.348Z,95681.84
2023-05-04T03:41:22.000Z,95680.16
2023-05-04T03:44:08.347Z,95683.53
2023-05-04T03:46:48.353Z,95680.13
2023-05-04T03:49:35.383Z,95686.91
2023-05-04T03:52:08.759Z,95682.69
2023-05-04T03:54:55.360Z,95695.41
2023-05-04T03:57:28.748Z,95698.84
2023-05-04T04:00:15.364Z,95697.97
2023-05-04T04:02:48.783Z,95697.13
2023-05-04T04:05:35.367Z,95698.84
2023-05-04T04:08:08.760Z,95706.50
2023-05-04T04:10:55.375Z,95705.66
2023-05-04T04:13:35.382Z,95709.03
2023-05-04T04:16:16.241Z,95702.25
2023-05-04T04:18:57.394Z,95708.19
2023-05-04T04:21:37.486Z,95712.44
2023-05-04T04:24:17.360Z,95712.44
2023-05-04T04:27:00.213Z,95710.75
2023-05-04T04:29:43.380Z,95711.59
2023-05-04T04:32:30.413Z,95711.59
2023-05-04T04:35:11.405Z,95704.81
2023-05-04T04:37:51.690Z,95707.38
2023-05-04T04:40:31.388Z,95708.25
2023-05-04T04:43:11.707Z,95708.22
2023-05-04T04:45:51.393Z,95704.00
2023-05-04T04:48:38.385Z,95705.69
2023-05-04T04:51:12.305Z,95704.88
2023-05-04T04:54:02.386Z,95708.25
2023-05-04T04:56:40.571Z,95704.84
2023-05-04T04:59:27.403Z,95708.28
2023-05-04T05:02:01.882Z,95708.25
2023-05-04T05:04:48.453Z,95707.41
2023-05-04T05:07:21.828Z,95711.66
2023-05-04T05:10:08.551Z,95711.66
2023-05-04T05:12:41.829Z,95710.81
2023-05-04T05:15:28.406Z,95717.63
2023-05-04T05:18:11.532Z,95715.09
2023-05-04T05:20:51.525Z,95720.19
2023-05-04T05:23:31.430Z,95716.78
2023-05-04T05:26:11.835Z,95716.81
2023-05-04T05:28:51.410Z,95712.53
2023-05-04T05:31:38.429Z,95718.50
2023-05-04T05:34:11.764Z,95718.50
2023-05-04T05:36:58.425Z,95718.50
2023-05-04T05:39:41.408Z,95723.59
2023-05-04T05:42:28.399Z,95715.97
2023-05-04T05:45:03.706Z,95726.16
2023-05-04T05:47:50.511Z,95722.75
2023-05-04T05:50:24.340Z,95722.75
2023-05-04T05:53:11.428Z,95719.38
2023-05-04T05:55:46.565Z,95727.00
2023-05-04T05:58:33.426Z,95727.03
2023-05-04T06:01:06.821Z,95722.75
2023-05-04T06:03:56.559Z,95724.47
2023-05-04T06:06:50.417Z,95720.19
2023-05-04T06:09:37.424Z,95718.50
2023-05-04T06:12:13.601Z,95722.78
2023-05-04T06:15:00.406Z,95725.34
2023-05-04T06:17:33.823Z,95727.88
2023-05-04T06:20:20.427Z,95729.59
2023-05-04T06:22:53.542Z,95737.25
2023-05-04T06:25:40.450Z,95731.28
2023-05-04T06:28:20.432Z,95732.97
2023-05-04T06:31:08.490Z,95742.34
2023-05-04T06:33:48.474Z,95731.28
2023-05-04T06:36:35.449Z,95742.34
2023-05-04T06:39:15.451Z,95742.34
2023-05-04T06:42:12.452Z,95744.91
2023-05-04T06:44:59.433Z,95742.34
2023-05-04T06:47:32.621Z,95740.66
2023-05-04T06:50:20.435Z,95738.94
2023-05-04T06:52:56.564Z,95740.66
2023-05-04T06:55:44.482Z,95743.22
2023-05-04T06:58:25.437Z,95744.06
2023-05-04T07:01:16.976Z,95748.31
2023-05-04T07:03:51.861Z,95744.06
2023-05-04T07:06:38.457Z,95753.38
2023-05-04T07:09:11.992Z,95751.66
2023-05-04T07:11:58.439Z,95743.16
2023-05-04T07:14:31.592Z,95749.13
2023-05-04T07:17:18.453Z,95752.50
2023-05-04T07:20:01.632Z,95757.63
2023-05-04T07:22:48.497Z,95763.56
2023-05-04T07:25:28.458Z,95762.75
2023-05-04T07:28:15.477Z,95757.63
2023-05-04T07:30:55.457Z,95751.69
2023-05-04T07:33:42.468Z,95744.06
2023-05-04T07:36:16.592Z,95754.25
2023-05-04T07:39:03.453Z,95754.25
2023-05-04T07:41:43.471Z,95753.41
2023-05-04T07:44:30.468Z,95763.63
2023-05-04T07:47:14.494Z,95757.66
2023-05-04T07:50:01.466Z,95758.47
2023-05-04T07:52:41.463Z,95758.47
2023-05-04T07:55:28.558Z,95764.38
2023-05-04T07:58:01.598Z,95760.09
2023-05-04T08:00:48.474Z,95759.19
2023-05-04T08:03:28.466Z,95760.81
2023-05-04T08:06:22.477Z,95758.22
2023-05-04T08:09:09.467Z,95757.28
2023-05-04T08:11:42.663Z,95761.50
2023-05-04T08:14:29.476Z,95759.72
2023-05-04T08:17:09.487Z,95760.50
2023-05-04T08:20:03.489Z,95762.16
2023-05-04T08:22:50.566Z,95757.03
2023-05-04T08:25:23.658Z,95763.91
2023-05-04T08:28:10.581Z,95757.88
2023-05-04T08:30:50.499Z,95757.84
2023-05-04T08:33:44.664Z,95756.84
2023-05-04T08:36:38.502Z,95761.09
2023-05-04T08:39:25.525Z,95766.97
2023-05-04T08:41:58.751Z,95765.97
2023-05-04T08:44:45.511Z,95771.97
2023-05-04T08:47:18.606Z,95768.56
2023-05-04T08:50:05.514Z,95772.72
2023-05-04T08:52:38.889Z,95771.81
2023-05-04T08:55:26.494Z,95781.09
2023-05-04T08:58:00.786Z,95771.44
2023-05-04T09:00:49.572Z,95768.66
2023-05-04T09:03:30.686Z,95769.44
2023-05-04T09:06:24.510Z,95771.09
2023-05-04T09:09:18.499Z,95767.66
2023-05-04T09:12:05.505Z,95763.38
2023-05-04T09:14:41.406Z,95756.56
2023-05-04T09:17:31.508Z,95751.91
2023-05-04T09:20:07.147Z,95754.06
2023-05-04T09:22:53.508Z,95750.69
2023-05-04T09:25:27.224Z,95746.38
2023-05-04T09:28:13.536Z,95742.75
2023-05-04T09:30:48.083Z,95757.69
2023-05-04T09:33:34.578Z,95760.22
2023-05-04T09:36:21.813Z,95753.72
2023-05-04T09:39:18.573Z,95749.72
2023-05-04T09:41:51.932Z,95747.50
2023-05-04T09:44:39.554Z,95756.22
2023-05-04T09:47:12.753Z,95758.09
2023-05-04T09:49:59.517Z,95752.94
2023-05-04T09:52:45.512Z,95746.72
2023-05-04T09:55:40.503Z,95743.25
2023-05-04T09:58:28.577Z,95741.66
2023-05-04T10:01:01.793Z,95748.53
2023-05-04T10:03:50.788Z,95743.53
2023-05-04T10:06:44.583Z,95741.88
2023-05-04T10:09:42.573Z,95738.44
2023-05-04T10:12:36.609Z,95733.97
2023-05-04T10:15:24.570Z,95741.38
2023-05-04T10:18:28.572Z,95736.09
2023-05-04T10:21:33.550Z,95735.28
2023-05-04T10:24:51.533Z,95736.44
2023-05-04T10:28:41.533Z,95734.47
2023-05-04T10:31:28.593Z,95726.16
2023-05-04T10:34:01.712Z,95721.38
2023-05-04T10:36:48.569Z,95717.34
2023-05-04T10:39:26.759Z,95717.06
2023-05-04T10:42:14.572Z,95707.81
2023-05-04T10:45:10.575Z,95714.13
2023-05-04T10:48:11.572Z,95720.41
2023-05-04T10:50:58.581Z,95709.38
2023-05-04T10:53:38.668Z,95711.78
2023-05-04T10:56:30.582Z,95709.88
2023-05-04T10:59:21.561Z,95703.00
2023-05-04T11:02:09.659Z,95699.28
2023-05-04T11:04:51.587Z,95699.59
2023-05-04T11:07:52.571Z,95703.44
2023-05-04T11:10:39.601Z,95703.38
2023-05-04T11:13:17.787Z,95705.28
2023-05-04T11:16:04.602Z,95705.53
2023-05-04T11:18:47.601Z,95694.31
2023-05-04T11:21:41.598Z,95696.63
2023-05-04T11:24:39.605Z,95696.31
2023-05-04T11:27:43.690Z,95688.59
2023-05-04T11:30:48.577Z,95692.00
2023-05-04T11:33:42.581Z,95686.94
2023-05-04T11:36:38.586Z,95676.44
2023-05-04T11:39:33.639Z,95675.28
2023-05-04T11:42:20.585Z,95670.75
2023-05-04T11:44:53.718Z,95668.22
2023-05-04T11:47:40.609Z,95663.59
2023-05-04T11:50:23.675Z,95659.44
2023-05-04T11:53:13.678Z,95659.63
2023-05-04T11:55:47.050Z,95657.50
2023-05-04T11:58:33.619Z,95655.84
2023-05-04T12:01:06.722Z,95648.72
2023-05-04T12:03:54.337Z,95652.44
2023-05-04T12:06:47.568Z,95653.59
2023-05-04T12:09:34.585Z,95652.25
2023-05-04T12:12:14.650Z,95648.16
2023-05-04T12:15:08.689Z,95641.09
2023-05-04T12:18:03.235Z,95645.00
2023-05-04T12:20:57.612Z,95651.66
2023-05-04T12:23:45.592Z,95653.06
2023-05-04T12:26:26.605Z,95648.81
2023-05-04T12:29:20.585Z,95646.09
2023-05-04T12:32:07.654Z,95650.19
2023-05-04T12:34:40.713Z,95641.44
2023-05-04T12:37:27.609Z,95642.19
2023-05-04T12:40:00.875Z,95633.75
2023-05-04T12:42:48.605Z,95630.69
2023-05-04T12:45:22.692Z,95620.72
2023-05-04T12:48:09.613Z,95615.31
2023-05-04T12:50:42.762Z,95624.28
2023-05-04T12:53:32.635Z,95616.22
2023-05-04T12:56:06.916Z,95620.41
2023-05-04T12:58:53.606Z,95621.34
2023-05-04T13:04:21.654Z,95618.16
2023-05-04T13:07:15.644Z,95620.84
2023-05-04T13:10:02.666Z,95614.72
2023-05-04T13:12:43.560Z,95620.78
2023-05-04T13:15:39.726Z,95618.16
2023-05-04T13:18:33.630Z,95611.31
2023-05-04T13:21:20.669Z,95610.63
2023-05-04T13:23:53.868Z,95610.81
2023-05-04T13:26:40.721Z,95601.34
2023-05-04T13:29:13.757Z,95602.19
2023-05-04T13:32:00.801Z,95603.16
2023-05-04T13:34:40.707Z,95598.88
2023-05-04T13:37:24.677Z,95604.94
2023-05-04T13:40:11.637Z,95593.03
2023-05-04T13:43:05.674Z,95596.69
2023-05-04T13:45:59.679Z,95598.59
2023-05-04T13:48:46.666Z,95596.34
2023-05-04T13:51:26.676Z,95592.97
2023-05-04T13:54:14.816Z,95586.97
2023-05-04T13:56:54.656Z,95579.13
2023-05-04T13:59:44.589Z,95583.09
2023-05-04T14:02:29.120Z,95583.81
2023-05-04T14:05:22.671Z,95577.75
2023-05-04T14:08:16.632Z,95578.41
2023-05-04T14:11:03.665Z,95576.47
2023-05-04T14:13:43.702Z,95579.88
2023-05-04T14:16:30.687Z,95576.69
2023-05-04T14:19:03.831Z,95580.19
2023-05-04T14:21:50.655Z,95580.22
2023-05-04T14:24:24.947Z,95576.19
2023-05-04T14:27:11.691Z,95572.84
2023-05-04T14:29:51.696Z,95571.28
2023-05-04T14:32:45.719Z,95574.84
2023-05-04T14:35:39.688Z,95574.13
2023-05-04T14:38:33.692Z,95577.00
2023-05-04T14:41:27.679Z,95581.34
2023-05-04T14:44:14.666Z,95572.09
2023-05-04T14:46:48.408Z,95574.81
2023-05-04T14:49:37.229Z,95564.50
2023-05-04T14:52:11.881Z,95572.16
2023-05-04T14:54:58.680Z,95567.69
2023-05-04T14:57:38.695Z,95555.59
2023-05-04T15:00:32.682Z,95551.00
2023-05-04T15:03:26.816Z,95553.53
2023-05-04T15:06:20.715Z,95555.84
2023-05-04T15:09:14.685Z,95547.28
2023-05-04T15:12:01.686Z,95547.94
2023-05-04T15:14:34.780Z,95559.88
2023-05-04T15:17:21.709Z,95563.53
2023-05-04T15:19:54.783Z,95560.22
2023-05-04T15:22:41.718Z,95551.84
2023-05-04T15:25:15.831Z,95555.47
2023-05-04T15:28:02.683Z,95557.31
2023-05-04T15:30:42.686Z,95559.16
2023-05-04T15:33:36.689Z,95557.66
2023-05-04T15:36:23.704Z,95550.91
2023-05-04T15:39:03.687Z,95551.81
2023-05-04T15:41:57.753Z,95546.69
2023-05-04T15:44:51.726Z,95541.53
2023-05-04T15:47:45.698Z,95537.25
2023-05-04T15:50:39.707Z,95521.81
2023-05-04T15:53:26.741Z,95520.94
2023-05-04T15:55:59.812Z,95522.59
2023-05-04T15:58:46.730Z,95524.28
2023-05-04T16:01:19.933Z,95521.72
2023-05-04T16:04:06.731Z,95519.19
2023-05-04T16:06:39.888Z,95517.63
2023-05-04T16:09:27.702Z,95526.31
2023-05-04T16:12:00.821Z,95526.41
2023-05-04T16:14:47.726Z,95522.19
2023-05-04T16:17:20.884Z,95515.41
2023-05-04T16:20:11.698Z,95521.47
2023-05-04T16:22:44.938Z,95515.56
2023-05-04T16:25:31.774Z,95519.06
2023-05-04T16:28:11.731Z,95523.44
2023-05-04T16:31:05.795Z,95519.28
2023-05-04T16:33:53.728Z,95521.97
2023-05-04T16:36:26.926Z,95522.88
2023-05-04T16:39:13.744Z,95530.59
2023-05-04T16:41:54.744Z,95526.38
2023-05-04T16:44:48.773Z,95533.25
2023-05-04T16:47:35.825Z,95531.66
2023-05-04T16:50:08.975Z,95531.75
2023-05-04T16:52:55.749Z,95539.56
2023-05-04T16:55:35.874Z,95535.41
2023-05-04T16:58:22.738Z,95530.38
2023-05-04T17:00:55.992Z,95531.28
2023-05-04T17:03:42.823Z,95533.97
2023-05-04T17:06:16.058Z,95528.09
2023-05-04T17:09:02.758Z,95528.16
2023-05-04T17:11:37.938Z,95529.97
2023-05-04T17:14:24.751Z,95538.56
2023-05-04T17:17:04.795Z,95541.22
2023-05-04T17:19:51.764Z,95540.41
2023-05-04T17:22:31.812Z,95549.03
2023-05-04T17:25:19.782Z,95545.69
2023-05-04T17:27:52.908Z,95544.88
2023-05-04T17:30:41.737Z,95545.84
2023-05-04T17:33:14.956Z,95550.22
2023-05-04T17:36:01.792Z,95550.28
2023-05-04T17:38:34.924Z,95558.88
2023-05-04T17:41:22.875Z,95555.50
2023-05-04T17:43:56.850Z,95570.09
2023-05-04T17:46:43.764Z,95571.91
2023-05-04T17:49:25.800Z,95581.31
2023-05-04T17:52:19.780Z,95584.00
2023-05-04T17:55:06.761Z,95581.50
2023-05-04T17:57:39.846Z,95592.69
2023-05-04T18:00:27.774Z,95585.94
2023-05-04T18:03:01.065Z,95585.13
2023-05-04T18:05:54.793Z,95589.44
2023-05-04T18:08:48.755Z,95592.06
2023-05-04T18:11:35.749Z,95592.16
2023-05-04T18:14:08.949Z,95601.59
2023-05-04T18:16:55.768Z,95598.25
2023-05-04T18:19:29.576Z,95598.28
2023-05-04T18:22:16.895Z,95601.75
2023-05-04T18:24:50.088Z,95600.09
2023-05-04T18:27:40.929Z,95595.84
2023-05-04T18:30:15.981Z,95604.41
2023-05-04T18:33:03.122Z,95606.13
2023-05-04T18:35:38.050Z,95608.69
2023-05-04T18:38:25.262Z,95614.66
2023-05-04T18:41:02.278Z,95613.81
2023-05-04T18:43:49.963Z,95616.41
2023-05-04T18:46:23.751Z,95619.81
2023-05-04T18:49:12.497Z,95615.56
2023-05-04T18:51:52.940Z,95623.25
2023-05-04T18:54:39.848Z,95624.97
2023-05-04T18:57:13.080Z,95632.59
2023-05-04T19:00:00.776Z,95630.06
2023-05-04T19:02:40.878Z,95629.22
2023-05-04T19:05:34.843Z,95631.78
2023-05-04T19:08:21.824Z,95629.22
2023-05-04T19:10:56.448Z,95626.66
2023-05-04T19:13:42.801Z,95625.81
2023-05-04T19:16:20.080Z,95629.25
2023-05-04T19:19:06.796Z,95631.78
2023-05-04T19:21:42.978Z,95636.88
2023-05-04T19:24:29.808Z,95633.50
2023-05-04T19:27:11.828Z,95634.34
2023-05-04T19:30:05.995Z,95631.78
2023-05-04T19:32:59.827Z,95634.31
2023-05-04T19:35:53.802Z,95636.03
2023-05-04T19:38:47.869Z,95637.72
2023-05-04T19:41:35.829Z,95633.47
2023-05-04T19:44:10.355Z,95636.88
2023-05-04T19:46:57.843Z,95635.19
2023-05-04T19:49:32.078Z,95637.72
2023-05-04T19:52:18.818Z,95632.59
2023-05-04T19:54:59.803Z,95631.72
2023-05-04T19:57:56.803Z,95635.16
2023-05-04T20:00:52.916Z,95648.72
2023-05-04T20:03:40.888Z,95645.28
2023-05-04T20:06:14.138Z,95651.25
2023-05-04T20:09:01.867Z,95651.19
2023-05-04T20:11:36.089Z,95649.47
2023-05-04T20:14:22.815Z,95651.16
2023-05-04T20:16:58.180Z,95655.38
2023-05-04T20:19:45.807Z,95651.94
2023-05-04T20:22:20.972Z,95647.69
2023-05-04T20:25:07.826Z,95649.34
2023-05-04T20:27:47.825Z,95646.78
2023-05-04T20:30:41.851Z,95650.13
2023-05-04T20:33:28.833Z,95646.75
2023-05-04T20:36:02.574Z,95645.00
2023-05-04T20:38:48.820Z,95640.75
2023-05-04T20:41:22.389Z,95638.19
2023-05-04T20:44:01.830Z,95629.69
2023-05-04T20:46:41.855Z,95629.69
2023-05-04T20:49:15.067Z,95628.81
2023-05-04T20:52:17.890Z,95631.31
2023-05-04T20:55:04.915Z,95632.13
2023-05-04T20:57:44.909Z,95639.78
2023-05-04T21:00:33.428Z,95637.19
2023-05-04T21:03:07.062Z,95637.13
2023-05-04T21:06:00.814Z,95632.91
2023-05-04T21:08:54.850Z,95632.84
2023-05-04T21:11:41.845Z,95631.09
2023-05-04T21:14:15.317Z,95631.06
2023-05-04T21:17:01.896Z,95626.81
2023-05-04T21:19:41.840Z,95631.03
2023-05-04T21:22:35.867Z,95636.94
2023-05-04T21:25:23.873Z,95629.28
2023-05-04T21:27:58.225Z,95636.84
2023-05-04T21:30:48.839Z,95633.41
2023-05-04T21:33:28.972Z,95630.84
2023-05-04T21:36:29.849Z,95625.75
2023-05-04T21:39:17.852Z,95629.97
2023-05-04T21:41:51.038Z,95630.78
2023-05-04T21:44:37.978Z,95621.47
2023-05-04T21:47:11.140Z,95623.16
2023-05-04T21:49:58.903Z,95630.78
2023-05-04T21:52:31.951Z,95629.03
2023-05-04T21:55:18.853Z,95616.31
2023-05-04T21:57:51.943Z,95620.53
2023-05-04T22:00:39.897Z,95617.97
2023-05-04T22:03:12.961Z,95622.22
2023-05-04T22:06:07.881Z,95609.53
2023-05-04T22:09:01.898Z,95612.84
2023-05-04T22:11:55.851Z,95610.28
2023-05-04T22:14:42.858Z,95608.53
2023-05-04T22:17:15.967Z,95603.41
2023-05-04T22:20:02.894Z,95610.09
2023-05-04T22:22:51.881Z,95603.31
2023-05-04T22:25:38.874Z,95601.56
2023-05-04T22:28:12.969Z,95599.81
2023-05-04T22:30:59.889Z,95591.28
2023-05-04T22:33:33.001Z,95597.97
2023-05-04T22:36:19.880Z,95603.88
2023-05-04T22:38:53.029Z,95602.19
2023-05-04T22:41:39.866Z,95592.03
2023-05-04T22:44:12.976Z,95599.63
2023-05-04T22:46:59.898Z,95594.56
2023-05-04T22:49:32.989Z,95592.88
2023-05-04T22:52:19.972Z,95586.06
2023-05-04T22:54:52.994Z,95586.03
2023-05-04T22:57:39.885Z,95588.50
2023-05-04T23:00:20.903Z,95580.88
2023-05-04T23:03:14.969Z,95589.31
2023-05-04T23:06:11.900Z,95589.28
2023-05-04T23:09:05.912Z,95590.13
2023-05-04T23:11:52.899Z,95586.69
2023-05-04T23:14:26.706Z,95585.78
2023-05-04T23:17:13.879Z,95575.59
2023-05-04T23:19:53.894Z,95574.69
2023-05-04T23:22:40.880Z,95571.25
2023-05-04T23:25:20.912Z,95568.66
2023-05-04T23:28:07.888Z,95572.88
2023-05-04T23:30:41.080Z,95566.91
2023-05-04T23:33:27.901Z,95565.19
2023-05-04T23:36:01.987Z,95560.09
2023-05-04T23:38:48.901Z,95560.97
2023-05-04T23:41:28.907Z,95555.03
2023-05-04T23:44:22.911Z,95557.53
2023-05-04T23:47:16.899Z,95558.38
2023-05-04T23:50:10.926Z,95558.38
2023-05-04T23:53:04.908Z,95549.03
2023-05-04T23:55:59.701Z,95564.22
2023-05-04T23:58:55.908Z,95563.38
